createdAt,value
2024-01-29T00:00:35.989Z,519.00
2024-01-29T00:01:35.975Z,516.00
2024-01-29T00:02:35.936Z,515.00
2024-01-29T00:03:36.065Z,513.00
2024-01-29T00:04:36.265Z,513.00
2024-01-29T00:05:35.974Z,514.00
2024-01-29T00:06:36.176Z,513.00
2024-01-29T00:07:35.996Z,512.00
2024-01-29T00:08:36.018Z,512.00
2024-01-29T00:09:36.081Z,513.00
2024-01-29T00:10:36.165Z,515.00
2024-01-29T00:11:36.258Z,517.00
2024-01-29T00:12:36.195Z,518.00
2024-01-29T00:13:36.158Z,518.00
2024-01-29T00:14:36.186Z,518.00
2024-01-29T00:15:36.289Z,517.00
2024-01-29T00:16:36.228Z,518.00
2024-01-29T00:17:36.333Z,516.00
2024-01-29T00:18:36.369Z,513.00
2024-01-29T00:19:36.452Z,515.00
2024-01-29T00:20:36.367Z,515.00
2024-01-29T00:21:36.393Z,516.00
2024-01-29T00:22:36.396Z,514.00
2024-01-29T00:23:36.418Z,513.00
2024-01-29T00:24:36.518Z,515.00
2024-01-29T00:25:36.496Z,513.00
2024-01-29T00:26:36.522Z,513.00
2024-01-29T00:27:36.558Z,508.00
2024-01-29T00:28:36.567Z,507.00
2024-01-29T00:29:36.582Z,506.00
2024-01-29T00:30:36.660Z,507.00
2024-01-29T00:31:36.635Z,507.00
2024-01-29T00:32:36.708Z,508.00
2024-01-29T00:33:36.844Z,511.00
2024-01-29T00:34:36.757Z,509.00
2024-01-29T00:35:36.755Z,508.00
2024-01-29T00:36:36.815Z,506.00
2024-01-29T00:37:36.811Z,508.00
2024-01-29T00:38:36.836Z,510.00
2024-01-29T00:39:36.870Z,510.00
2024-01-29T00:40:36.887Z,507.00
2024-01-29T00:41:36.925Z,508.00
2024-01-29T00:42:37.008Z,510.00
2024-01-29T00:43:36.947Z,509.00
2024-01-29T00:44:36.991Z,510.00
2024-01-29T00:45:37.042Z,509.00
2024-01-29T00:46:37.048Z,509.00
2024-01-29T00:47:37.120Z,509.00
2024-01-29T00:48:37.208Z,510.00
2024-01-29T00:49:37.506Z,510.00
2024-01-29T00:50:37.160Z,509.00
2024-01-29T00:51:37.204Z,507.00
2024-01-29T00:52:37.205Z,507.00
2024-01-29T00:53:37.252Z,507.00
2024-01-29T00:54:37.304Z,505.00
2024-01-29T00:55:37.277Z,507.00
2024-01-29T00:56:37.314Z,508.00
2024-01-29T00:57:37.347Z,510.00
2024-01-29T00:58:37.360Z,508.00
2024-01-29T00:59:37.406Z,507.00
2024-01-29T01:00:37.483Z,505.00
2024-01-29T01:01:37.560Z,504.00
2024-01-29T01:02:37.542Z,505.00
2024-01-29T01:03:37.553Z,504.00
2024-01-29T01:04:37.621Z,504.00
2024-01-29T01:05:37.667Z,507.00
2024-01-29T01:06:37.726Z,509.00
2024-01-29T01:07:37.638Z,510.00
2024-01-29T01:08:37.639Z,511.00
2024-01-29T01:09:37.728Z,510.00
2024-01-29T01:10:37.716Z,509.00
2024-01-29T01:11:37.710Z,508.00
2024-01-29T01:12:37.778Z,508.00
2024-01-29T01:13:37.718Z,510.00
2024-01-29T01:14:37.763Z,510.00
2024-01-29T01:15:37.803Z,509.00
2024-01-29T01:16:37.743Z,508.00
2024-01-29T01:17:37.820Z,509.00
2024-01-29T01:18:37.834Z,510.00
2024-01-29T01:19:37.844Z,509.00
2024-01-29T01:20:37.770Z,508.00
2024-01-29T01:21:37.805Z,508.00
2024-01-29T01:22:37.808Z,505.00
2024-01-29T01:23:37.792Z,502.00
2024-01-29T01:24:37.826Z,503.00
2024-01-29T01:25:37.800Z,503.00
2024-01-29T01:26:37.806Z,505.00
2024-01-29T01:27:37.845Z,504.00
2024-01-29T01:28:37.826Z,503.00
2024-01-29T01:29:37.843Z,505.00
2024-01-29T01:30:37.926Z,505.00
2024-01-29T01:31:37.854Z,504.00
2024-01-29T01:32:37.918Z,508.00
2024-01-29T01:33:37.947Z,507.00
2024-01-29T01:34:38.047Z,508.00
2024-01-29T01:35:37.882Z,508.00
2024-01-29T01:36:37.897Z,509.00
2024-01-29T01:37:37.887Z,508.00
2024-01-29T01:38:37.913Z,510.00
2024-01-29T01:39:37.932Z,508.00
2024-01-29T01:40:37.921Z,508.00
2024-01-29T01:41:37.974Z,506.00
2024-01-29T01:42:38.020Z,506.00
2024-01-29T01:43:38.048Z,508.00
2024-01-29T01:44:38.081Z,507.00
2024-01-29T01:45:38.206Z,509.00
2024-01-29T01:46:38.233Z,509.00
2024-01-29T01:47:38.165Z,510.00
2024-01-29T01:48:38.265Z,511.00
2024-01-29T01:49:38.294Z,509.00
2024-01-29T01:50:38.226Z,509.00
2024-01-29T01:51:38.289Z,511.00
2024-01-29T01:52:38.285Z,512.00
2024-01-29T01:53:38.338Z,513.00
2024-01-29T01:54:38.393Z,512.00
2024-01-29T01:55:38.373Z,510.00
2024-01-29T01:56:38.399Z,510.00
2024-01-29T01:57:38.480Z,510.00
2024-01-29T01:58:38.472Z,510.00
2024-01-29T01:59:38.500Z,509.00
2024-01-29T02:00:38.602Z,507.00
2024-01-29T02:01:38.643Z,505.00
2024-01-29T02:02:38.603Z,505.00
2024-01-29T02:03:38.660Z,507.00
2024-01-29T02:04:38.774Z,509.00
2024-01-29T02:05:38.718Z,511.00
2024-01-29T02:06:38.754Z,510.00
2024-01-29T02:07:38.804Z,509.00
2024-01-29T02:08:38.781Z,508.00
2024-01-29T02:09:38.838Z,504.00
2024-01-29T02:10:38.833Z,504.00
2024-01-29T02:11:38.864Z,504.00
2024-01-29T02:12:38.947Z,504.00
2024-01-29T02:13:38.911Z,503.00
2024-01-29T02:14:38.962Z,501.00
2024-01-29T02:15:38.986Z,499.00
2024-01-29T02:16:39.030Z,501.00
2024-01-29T02:17:39.079Z,501.00
2024-01-29T02:18:39.148Z,498.00
2024-01-29T02:19:39.262Z,498.00
2024-01-29T02:20:39.128Z,498.00
2024-01-29T02:21:39.140Z,499.00
2024-01-29T02:22:39.177Z,501.00
2024-01-29T02:23:39.169Z,504.00
2024-01-29T02:24:39.228Z,504.00
2024-01-29T02:25:39.176Z,505.00
2024-01-29T02:26:39.189Z,506.00
2024-01-29T02:27:39.208Z,505.00
2024-01-29T02:28:39.212Z,504.00
2024-01-29T02:29:39.243Z,504.00
2024-01-29T02:30:39.274Z,505.00
2024-01-29T02:31:39.216Z,507.00
2024-01-29T02:32:39.271Z,505.00
2024-01-29T02:33:39.974Z,506.00
2024-01-29T02:34:39.310Z,505.00
2024-01-29T02:35:39.234Z,505.00
2024-01-29T02:36:39.262Z,505.00
2024-01-29T02:37:39.238Z,504.00
2024-01-29T02:38:39.242Z,505.00
2024-01-29T02:39:39.291Z,505.00
2024-01-29T02:40:39.255Z,504.00
2024-01-29T02:41:39.248Z,508.00
2024-01-29T02:42:39.261Z,512.00
2024-01-29T02:43:39.232Z,511.00
2024-01-29T02:44:39.243Z,512.00
2024-01-29T02:45:39.309Z,511.00
2024-01-29T02:46:39.240Z,508.00
2024-01-29T02:47:39.270Z,509.00
2024-01-29T02:48:39.304Z,509.00
2024-01-29T02:49:39.360Z,508.00
2024-01-29T02:50:39.254Z,508.00
2024-01-29T02:51:39.298Z,505.00
2024-01-29T02:52:39.256Z,507.00
2024-01-29T02:53:39.258Z,505.00
2024-01-29T02:54:39.288Z,508.00
2024-01-29T02:55:39.257Z,508.00
2024-01-29T02:56:39.267Z,507.00
2024-01-29T02:57:39.317Z,507.00
2024-01-29T02:58:39.271Z,508.00
2024-01-29T02:59:39.287Z,506.00
2024-01-29T03:00:39.362Z,507.00
2024-01-29T03:01:39.467Z,508.00
2024-01-29T03:02:39.371Z,509.00
2024-01-29T03:03:39.490Z,510.00
2024-01-29T03:04:39.527Z,508.00
2024-01-29T03:05:39.437Z,509.00
2024-01-29T03:06:39.467Z,509.00
2024-01-29T03:07:39.458Z,511.00
2024-01-29T03:08:39.479Z,507.00
2024-01-29T03:09:39.555Z,506.00
2024-01-29T03:10:39.520Z,505.00
2024-01-29T03:11:39.545Z,505.00
2024-01-29T03:12:39.581Z,506.00
2024-01-29T03:13:39.592Z,507.00
2024-01-29T03:14:39.618Z,508.00
2024-01-29T03:15:40.380Z,507.00
2024-01-29T03:16:39.642Z,506.00
2024-01-29T03:17:39.686Z,505.00
2024-01-29T03:18:39.809Z,506.00
2024-01-29T03:19:39.928Z,507.00
2024-01-29T03:20:39.707Z,509.00
2024-01-29T03:21:39.719Z,510.00
2024-01-29T03:22:39.730Z,511.00
2024-01-29T03:23:39.746Z,509.00
2024-01-29T03:24:39.800Z,508.00
2024-01-29T03:25:39.782Z,506.00
2024-01-29T03:26:39.802Z,506.00
2024-01-29T03:27:39.879Z,505.00
2024-01-29T03:28:39.849Z,504.00
2024-01-29T03:29:39.852Z,502.00
2024-01-29T03:30:39.921Z,503.00
2024-01-29T03:31:39.888Z,505.00
2024-01-29T03:32:39.952Z,507.00
2024-01-29T03:33:40.065Z,507.00
2024-01-29T03:34:40.037Z,505.00
2024-01-29T03:35:39.943Z,505.00
2024-01-29T03:36:39.971Z,506.00
2024-01-29T03:37:39.978Z,504.00
2024-01-29T03:38:39.993Z,505.00
2024-01-29T03:39:40.031Z,504.00
2024-01-29T03:40:40.014Z,503.00
2024-01-29T03:41:40.017Z,504.00
2024-01-29T03:42:40.069Z,507.00
2024-01-29T03:43:40.050Z,506.00
2024-01-29T03:44:40.071Z,507.00
2024-01-29T03:45:40.136Z,507.00
2024-01-29T03:46:40.080Z,508.00
2024-01-29T03:47:40.093Z,507.00
2024-01-29T03:48:40.252Z,507.00
2024-01-29T03:49:40.204Z,507.00
2024-01-29T03:50:40.127Z,505.00
2024-01-29T03:51:40.165Z,503.00
2024-01-29T03:52:40.128Z,502.00
2024-01-29T03:53:40.120Z,503.00
2024-01-29T03:54:40.157Z,501.00
2024-01-29T03:55:40.145Z,501.00
2024-01-29T03:56:40.133Z,503.00
2024-01-29T03:57:40.188Z,505.00
2024-01-29T03:58:40.150Z,506.00
2024-01-29T03:59:40.151Z,505.00
2024-01-29T04:00:40.321Z,507.00
2024-01-29T04:01:40.340Z,508.00
2024-01-29T04:02:40.160Z,507.00
2024-01-29T04:03:40.251Z,509.00
2024-01-29T04:04:40.340Z,509.00
2024-01-29T04:05:40.207Z,507.00
2024-01-29T04:06:40.269Z,506.00
2024-01-29T04:07:40.276Z,503.00
2024-01-29T04:08:40.178Z,501.00
2024-01-29T04:09:40.230Z,503.00
2024-01-29T04:10:40.195Z,501.00
2024-01-29T04:11:40.211Z,502.00
2024-01-29T04:12:40.232Z,501.00
2024-01-29T04:13:40.200Z,504.00
2024-01-29T04:14:40.204Z,506.00
2024-01-29T04:15:40.255Z,506.00
2024-01-29T04:16:40.185Z,507.00
2024-01-29T04:17:40.331Z,506.00
2024-01-29T04:18:40.306Z,505.00
2024-01-29T04:19:40.231Z,504.00
2024-01-29T04:20:40.275Z,504.00
2024-01-29T04:21:40.242Z,505.00
2024-01-29T04:22:40.222Z,505.00
2024-01-29T04:23:40.290Z,505.00
2024-01-29T04:24:40.255Z,506.00
2024-01-29T04:25:40.240Z,507.00
2024-01-29T04:26:40.244Z,506.00
2024-01-29T04:27:40.278Z,506.00
2024-01-29T04:28:40.251Z,504.00
2024-01-29T04:29:40.276Z,506.00
2024-01-29T04:30:40.308Z,505.00
2024-01-29T04:31:40.266Z,501.00
2024-01-29T04:32:40.399Z,501.00
2024-01-29T04:33:40.314Z,498.00
2024-01-29T04:34:40.319Z,499.00
2024-01-29T04:35:40.282Z,501.00
2024-01-29T04:36:40.321Z,502.00
2024-01-29T04:37:40.294Z,499.00
2024-01-29T04:38:40.325Z,498.00
2024-01-29T04:39:40.344Z,498.00
2024-01-29T04:40:40.363Z,499.00
2024-01-29T04:41:40.354Z,500.00
2024-01-29T04:42:40.436Z,501.00
2024-01-29T04:43:40.343Z,501.00
2024-01-29T04:44:40.366Z,501.00
2024-01-29T04:45:40.385Z,500.00
2024-01-29T04:46:40.366Z,500.00
2024-01-29T04:47:40.471Z,501.00
2024-01-29T04:48:40.378Z,502.00
2024-01-29T04:49:40.463Z,501.00
2024-01-29T04:50:47.754Z,500.00
2024-01-29T04:51:47.884Z,497.00
2024-01-29T04:52:47.773Z,498.00
2024-01-29T04:53:47.788Z,500.00
2024-01-29T04:54:47.866Z,497.00
2024-01-29T04:55:47.818Z,497.00
2024-01-29T04:56:47.827Z,495.00
2024-01-29T04:57:47.849Z,494.00
2024-01-29T04:58:47.908Z,494.00
2024-01-29T04:59:47.863Z,494.00
2024-01-29T05:00:47.977Z,496.00
2024-01-29T05:01:48.024Z,499.00
2024-01-29T05:02:47.949Z,499.00
2024-01-29T05:03:50.602Z,499.00
2024-01-29T05:04:48.095Z,500.00
2024-01-29T05:05:48.044Z,499.00
2024-01-29T05:06:48.050Z,498.00
2024-01-29T05:07:48.041Z,498.00
2024-01-29T05:08:48.052Z,494.00
2024-01-29T05:09:48.381Z,493.00
2024-01-29T05:10:48.161Z,493.00
2024-01-29T05:11:48.091Z,492.00
2024-01-29T05:12:48.112Z,494.00
2024-01-29T05:13:48.123Z,492.00
2024-01-29T05:14:48.133Z,493.00
2024-01-29T05:15:48.218Z,492.00
2024-01-29T05:16:48.144Z,492.00
2024-01-29T05:17:48.222Z,491.00
2024-01-29T05:18:48.186Z,490.00
2024-01-29T05:19:48.206Z,493.00
2024-01-29T05:20:48.190Z,494.00
2024-01-29T05:21:49.031Z,494.00
2024-01-29T05:22:48.213Z,495.00
2024-01-29T05:23:48.227Z,494.00
2024-01-29T05:24:48.234Z,494.00
2024-01-29T05:25:48.249Z,495.00
2024-01-29T05:26:48.250Z,495.00
2024-01-29T05:27:48.368Z,492.00
2024-01-29T05:28:48.266Z,493.00
2024-01-29T05:29:48.274Z,493.00
2024-01-29T05:30:48.311Z,494.00
2024-01-29T05:31:48.323Z,495.00
2024-01-29T05:32:48.369Z,495.00
2024-01-29T05:33:48.463Z,495.00
2024-01-29T05:34:48.483Z,499.00
2024-01-29T05:35:48.541Z,500.00
2024-01-29T05:36:48.456Z,500.00
2024-01-29T05:37:48.390Z,500.00
2024-01-29T05:38:48.404Z,502.00
2024-01-29T05:39:48.515Z,502.00
2024-01-29T05:40:48.429Z,501.00
2024-01-29T05:41:48.441Z,501.00
2024-01-29T05:42:48.489Z,500.00
2024-01-29T05:43:48.469Z,500.00
2024-01-29T05:44:48.486Z,499.00
2024-01-29T05:45:48.534Z,499.00
2024-01-29T05:46:48.482Z,499.00
2024-01-29T05:47:48.584Z,503.00
2024-01-29T05:48:48.733Z,504.00
2024-01-29T05:49:48.659Z,504.00
2024-01-29T05:50:48.546Z,505.00
2024-01-29T05:51:48.629Z,503.00
2024-01-29T05:52:49.369Z,501.00
2024-01-29T05:53:48.680Z,500.00
2024-01-29T05:54:48.728Z,499.00
2024-01-29T05:55:48.627Z,500.00
2024-01-29T05:56:51.026Z,500.00
2024-01-29T05:57:48.645Z,500.00
2024-01-29T05:58:48.656Z,501.00
2024-01-29T05:59:48.666Z,500.00
2024-01-29T06:00:48.815Z,500.00
2024-01-29T06:01:49.026Z,500.00
2024-01-29T06:02:48.813Z,502.00
2024-01-29T06:03:48.740Z,501.00
2024-01-29T06:04:49.419Z,500.00
2024-01-29T06:05:48.843Z,502.00
2024-01-29T06:06:48.999Z,503.00
2024-01-29T06:07:48.821Z,500.00
2024-01-29T06:08:48.792Z,499.00
2024-01-29T06:09:48.849Z,499.00
2024-01-29T06:10:50.712Z,500.00
2024-01-29T06:11:48.849Z,503.00
2024-01-29T06:12:48.908Z,505.00
2024-01-29T06:13:48.942Z,504.00
2024-01-29T06:14:48.951Z,504.00
2024-01-29T06:15:48.982Z,504.00
2024-01-29T06:16:48.924Z,504.00
2024-01-29T06:17:48.991Z,508.00
2024-01-29T06:18:49.099Z,507.00
2024-01-29T06:20:03.215Z,509.00
2024-01-29T06:20:50.156Z,509.00
2024-01-29T06:21:49.108Z,516.00
2024-01-29T06:22:48.983Z,524.00
2024-01-29T06:23:48.998Z,534.00
2024-01-29T06:24:49.045Z,590.00
2024-01-29T06:25:49.055Z,621.00
2024-01-29T06:26:49.718Z,728.00
2024-01-29T06:27:49.164Z,715.00
2024-01-29T06:28:49.078Z,724.00
2024-01-29T06:29:49.104Z,745.00
2024-01-29T06:30:49.163Z,758.00
2024-01-29T06:31:49.206Z,857.00
2024-01-29T06:32:49.327Z,865.00
2024-01-29T06:33:49.383Z,887.00
2024-01-29T06:34:49.645Z,888.00
2024-01-29T06:35:49.479Z,935.00
2024-01-29T06:36:49.562Z,983.00
2024-01-29T06:37:50.301Z,1064.00
2024-01-29T06:38:49.630Z,1090.00
2024-01-29T06:39:49.742Z,1149.00
2024-01-29T06:40:49.720Z,1162.00
2024-01-29T06:41:49.770Z,1172.00
2024-01-29T06:42:49.861Z,1210.00
2024-01-29T06:43:49.818Z,1224.00
2024-01-29T06:44:49.857Z,1237.00
2024-01-29T06:45:50.424Z,1245.00
2024-01-29T06:46:49.943Z,1291.00
2024-01-29T06:47:49.962Z,1338.00
2024-01-29T06:48:50.050Z,1351.00
2024-01-29T06:49:50.920Z,1375.00
2024-01-29T06:50:50.882Z,1403.00
2024-01-29T06:51:51.911Z,1413.00
2024-01-29T06:52:50.381Z,1434.00
2024-01-29T06:53:50.101Z,1460.00
2024-01-29T06:54:50.118Z,1490.00
2024-01-29T06:55:50.129Z,1511.00
2024-01-29T06:56:50.134Z,1523.00
2024-01-29T06:57:50.267Z,1535.00
2024-01-29T06:58:50.112Z,1561.00
2024-01-29T06:59:50.851Z,1611.00
2024-01-29T07:00:50.259Z,1620.00
2024-01-29T07:01:50.282Z,1691.00
2024-01-29T07:02:50.176Z,1699.00
2024-01-29T07:03:50.404Z,1699.00
2024-01-29T07:04:50.955Z,1707.00
2024-01-29T07:05:50.340Z,1714.00
2024-01-29T07:06:50.354Z,1730.00
2024-01-29T07:07:50.389Z,1762.00
2024-01-29T07:08:50.310Z,1818.00
2024-01-29T07:09:50.313Z,1848.00
2024-01-29T07:10:50.321Z,1872.00
2024-01-29T07:11:51.013Z,1927.00
2024-01-29T07:12:50.443Z,1931.00
2024-01-29T07:13:50.406Z,1952.00
2024-01-29T07:14:50.337Z,1971.00
2024-01-29T07:15:50.468Z,2028.00
2024-01-29T07:16:50.360Z,2055.00
2024-01-29T07:17:50.426Z,2062.00
2024-01-29T07:18:50.476Z,2069.00
2024-01-29T07:19:50.438Z,2093.00
2024-01-29T07:20:50.490Z,2121.00
2024-01-29T07:21:50.507Z,2155.00
2024-01-29T07:22:50.439Z,2273.00
2024-01-29T07:23:50.433Z,2300.00
2024-01-29T07:24:51.448Z,2326.00
2024-01-29T07:25:50.520Z,2334.00
2024-01-29T07:26:50.452Z,2330.00
2024-01-29T07:27:50.506Z,2328.00
2024-01-29T07:28:50.510Z,2331.00
2024-01-29T07:29:50.558Z,2413.00
2024-01-29T07:30:50.634Z,2433.00
2024-01-29T07:31:50.777Z,2458.00
2024-01-29T07:32:50.775Z,2508.00
2024-01-29T07:33:50.798Z,2529.00
2024-01-29T07:34:53.112Z,2555.00
2024-01-29T07:35:51.009Z,2584.00
2024-01-29T07:36:51.137Z,2606.00
2024-01-29T07:37:51.058Z,2660.00
2024-01-29T07:38:51.901Z,2684.00
2024-01-29T07:39:51.175Z,2723.00
2024-01-29T07:40:51.192Z,2735.00
2024-01-29T07:41:51.218Z,2791.00
2024-01-29T07:42:51.548Z,2813.00
2024-01-29T07:43:51.298Z,2844.00
2024-01-29T07:44:51.415Z,2895.00
2024-01-29T07:45:51.431Z,2908.00
2024-01-29T07:46:52.399Z,2920.00
2024-01-29T07:47:51.542Z,2923.00
2024-01-29T07:48:51.595Z,2932.00
2024-01-29T07:49:51.743Z,2989.00
2024-01-29T07:50:51.585Z,2991.00
2024-01-29T07:51:51.684Z,2993.00
2024-01-29T07:52:51.654Z,3004.00
2024-01-29T07:53:52.413Z,3023.00
2024-01-29T07:54:51.746Z,3043.00
2024-01-29T07:55:51.772Z,3085.00
2024-01-29T07:56:51.839Z,3112.00
2024-01-29T07:57:51.977Z,3142.00
2024-01-29T07:58:51.923Z,3160.00
2024-01-29T07:59:51.949Z,3175.00
2024-01-29T08:00:52.262Z,3188.00
2024-01-29T08:01:52.126Z,3265.00
2024-01-29T08:02:52.184Z,3296.00
2024-01-29T08:03:52.193Z,3312.00
2024-01-29T08:04:52.369Z,3320.00
2024-01-29T08:05:52.279Z,3346.00
2024-01-29T08:06:52.343Z,3372.00
2024-01-29T08:07:52.393Z,3398.00
2024-01-29T08:08:52.444Z,3424.00
2024-01-29T08:09:52.549Z,3439.00
2024-01-29T08:10:52.564Z,3463.00
2024-01-29T08:11:52.606Z,3540.00
2024-01-29T08:12:52.716Z,3539.00
2024-01-29T08:13:52.816Z,3539.00
2024-01-29T08:14:52.748Z,3493.00
2024-01-29T08:15:52.835Z,3461.00
2024-01-29T08:16:52.945Z,3447.00
2024-01-29T08:17:52.980Z,3433.00
2024-01-29T08:18:53.096Z,3424.00
2024-01-29T08:19:53.060Z,3409.00
2024-01-29T08:20:53.115Z,3405.00
2024-01-29T08:21:53.038Z,3397.00
2024-01-29T08:22:53.155Z,3388.00
2024-01-29T08:23:53.094Z,3377.00
2024-01-29T08:24:53.123Z,3365.00
2024-01-29T08:25:53.137Z,3356.00
2024-01-29T08:26:53.202Z,3345.00
2024-01-29T08:27:53.954Z,3334.00
2024-01-29T08:28:53.265Z,3328.00
2024-01-29T08:29:53.341Z,3320.00
2024-01-29T08:30:53.471Z,3315.00
2024-01-29T08:31:53.414Z,3299.00
2024-01-29T08:32:53.507Z,3288.00
2024-01-29T08:33:53.656Z,3282.00
2024-01-29T08:34:53.754Z,3275.00
2024-01-29T08:35:53.923Z,3265.00
2024-01-29T08:36:53.744Z,3255.00
2024-01-29T08:37:53.776Z,3250.00
2024-01-29T08:38:53.862Z,3242.00
2024-01-29T08:39:53.918Z,3225.00
2024-01-29T08:40:53.950Z,3216.00
2024-01-29T08:41:54.060Z,3211.00
2024-01-29T08:42:54.135Z,3201.00
2024-01-29T08:43:54.168Z,3193.00
2024-01-29T08:44:54.325Z,3184.00
2024-01-29T08:45:54.337Z,3177.00
2024-01-29T08:46:54.375Z,3169.00
2024-01-29T08:47:54.495Z,3152.00
2024-01-29T08:48:54.571Z,3138.00
2024-01-29T08:49:54.597Z,3136.00
2024-01-29T08:50:54.663Z,3132.00
2024-01-29T08:51:54.794Z,3124.00
2024-01-29T08:52:54.819Z,3110.00
2024-01-29T08:53:54.849Z,3102.00
2024-01-29T08:54:54.904Z,3098.00
2024-01-29T08:55:55.081Z,3089.00
2024-01-29T08:56:55.002Z,3084.00
2024-01-29T08:57:55.022Z,3079.00
2024-01-29T08:58:55.022Z,3071.00
2024-01-29T08:59:55.028Z,3058.00
2024-01-29T09:00:55.215Z,3046.00
2024-01-29T09:01:55.180Z,3035.00
2024-01-29T09:02:55.132Z,3017.00
2024-01-29T09:03:55.204Z,2999.00
2024-01-29T09:04:55.326Z,2983.00
2024-01-29T09:05:55.230Z,2976.00
2024-01-29T09:06:55.218Z,2974.00
2024-01-29T09:07:56.245Z,2964.00
2024-01-29T09:08:55.233Z,2956.00
2024-01-29T09:09:55.254Z,2951.00
2024-01-29T09:10:55.232Z,2949.00
2024-01-29T09:11:55.238Z,2940.00
2024-01-29T09:12:55.274Z,2932.00
2024-01-29T09:13:55.257Z,2930.00
2024-01-29T09:14:55.258Z,2914.00
2024-01-29T09:15:55.257Z,2904.00
2024-01-29T09:16:55.894Z,2897.00
2024-01-29T09:17:55.326Z,2889.00
2024-01-29T09:18:55.969Z,2888.00
2024-01-29T09:19:55.966Z,2886.00
2024-01-29T09:20:55.282Z,2879.00
2024-01-29T09:21:55.344Z,2869.00
2024-01-29T09:22:55.327Z,2863.00
2024-01-29T09:23:55.286Z,2833.00
2024-01-29T09:24:55.329Z,2794.00
2024-01-29T09:25:55.872Z,2713.00
2024-01-29T09:26:55.293Z,2668.00
2024-01-29T09:27:55.338Z,2645.00
2024-01-29T09:28:55.288Z,2640.00
2024-01-29T09:29:55.287Z,2631.00
2024-01-29T09:30:55.325Z,2621.00
2024-01-29T09:31:55.277Z,2613.00
2024-01-29T09:33:03.335Z,2602.00
2024-01-29T09:33:56.545Z,2587.00
2024-01-29T09:34:55.463Z,2567.00
2024-01-29T09:35:55.283Z,2562.00
2024-01-29T09:36:55.335Z,2553.00
2024-01-29T09:37:55.345Z,2546.00
2024-01-29T09:38:55.264Z,2543.00
2024-01-29T09:39:55.298Z,2539.00
2024-01-29T09:40:55.273Z,2540.00
2024-01-29T09:41:55.285Z,2534.00
2024-01-29T09:42:55.910Z,2528.00
2024-01-29T09:43:55.274Z,2524.00
2024-01-29T09:44:55.262Z,2519.00
2024-01-29T09:45:55.271Z,2512.00
2024-01-29T09:46:55.245Z,2505.00
2024-01-29T09:47:56.080Z,2499.00
2024-01-29T09:48:55.357Z,2489.00
2024-01-29T09:49:55.979Z,2482.00
2024-01-29T09:50:55.261Z,2479.00
2024-01-29T09:51:55.265Z,2475.00
2024-01-29T09:52:58.852Z,2476.00
2024-01-29T09:53:55.241Z,2473.00
2024-01-29T09:54:55.257Z,2470.00
2024-01-29T09:55:55.206Z,2465.00
2024-01-29T09:56:55.219Z,2461.00
2024-01-29T09:57:55.305Z,2455.00
2024-01-29T09:58:55.267Z,2451.00
2024-01-29T09:59:55.948Z,2451.00
2024-01-29T10:00:55.277Z,2452.00
2024-01-29T10:01:55.238Z,2446.00
2024-01-29T10:02:55.368Z,2439.00
2024-01-29T10:03:55.264Z,2431.00
2024-01-29T10:04:55.218Z,2427.00
2024-01-29T10:05:55.161Z,2421.00
2024-01-29T10:06:55.237Z,2414.00
2024-01-29T10:07:55.318Z,2410.00
2024-01-29T10:08:55.133Z,2408.00
2024-01-29T10:09:55.215Z,2401.00
2024-01-29T10:10:55.126Z,2396.00
2024-01-29T10:11:55.145Z,2389.00
2024-01-29T10:12:55.144Z,2383.00
2024-01-29T10:13:55.954Z,2384.00
2024-01-29T10:14:55.119Z,2382.00
2024-01-29T10:15:55.212Z,2375.00
2024-01-29T10:16:55.089Z,2370.00
2024-01-29T10:17:55.129Z,2367.00
2024-01-29T10:18:55.178Z,2332.00
2024-01-29T10:19:55.260Z,2196.00
2024-01-29T10:20:55.172Z,1984.00
2024-01-29T10:21:55.230Z,1816.00
2024-01-29T10:22:55.195Z,1734.00
2024-01-29T10:23:55.221Z,1708.00
2024-01-29T10:24:55.273Z,1712.00
2024-01-29T10:25:55.973Z,1758.00
2024-01-29T10:26:55.292Z,1760.00
2024-01-29T10:27:55.326Z,1779.00
2024-01-29T10:28:55.345Z,1794.00
2024-01-29T10:29:55.353Z,1851.00
2024-01-29T10:30:55.630Z,1849.00
2024-01-29T10:31:55.495Z,1867.00
2024-01-29T10:32:55.683Z,1873.00
2024-01-29T10:33:55.749Z,1889.00
2024-01-29T10:34:55.840Z,2030.00
2024-01-29T10:35:55.820Z,2029.00
2024-01-29T10:36:55.816Z,2129.00
2024-01-29T10:37:55.835Z,2166.00
2024-01-29T10:38:55.868Z,2172.00
2024-01-29T10:39:59.666Z,2192.00
2024-01-29T10:40:55.907Z,2181.00
2024-01-29T10:41:56.542Z,2224.00
2024-01-29T10:42:55.913Z,2319.00
2024-01-29T10:43:55.875Z,2332.00
2024-01-29T10:44:55.891Z,2341.00
2024-01-29T10:45:57.540Z,2365.00
2024-01-29T10:46:55.850Z,2443.00
2024-01-29T10:47:57.650Z,2451.00
2024-01-29T10:48:56.110Z,2499.00
2024-01-29T10:49:57.011Z,2524.00
2024-01-29T10:50:56.077Z,2527.00
2024-01-29T10:51:56.526Z,2530.00
2024-01-29T10:52:56.136Z,2617.00
2024-01-29T10:53:56.142Z,2623.00
2024-01-29T10:54:56.220Z,2613.00
2024-01-29T10:55:56.216Z,2621.00
2024-01-29T10:56:56.279Z,2641.00
2024-01-29T10:57:56.285Z,2696.00
2024-01-29T10:58:56.306Z,2736.00
2024-01-29T10:59:56.398Z,2738.00
2024-01-29T11:00:56.452Z,2763.00
2024-01-29T11:02:03.852Z,2768.00
2024-01-29T11:02:57.453Z,2794.00
2024-01-29T11:03:56.434Z,2839.00
2024-01-29T11:04:56.419Z,2848.00
2024-01-29T11:05:56.402Z,2868.00
2024-01-29T11:06:57.380Z,2883.00
2024-01-29T11:07:56.284Z,2911.00
2024-01-29T11:08:56.284Z,2985.00
2024-01-29T11:09:56.317Z,3044.00
2024-01-29T11:10:56.312Z,2963.00
2024-01-29T11:11:56.234Z,2643.00
2024-01-29T11:12:56.321Z,2462.00
2024-01-29T11:13:56.242Z,2416.00
2024-01-29T11:14:56.226Z,2326.00
2024-01-29T11:15:56.282Z,2344.00
2024-01-29T11:16:56.206Z,2336.00
2024-01-29T11:17:56.220Z,2334.00
2024-01-29T11:18:56.264Z,2314.00
2024-01-29T11:19:56.243Z,2281.00
2024-01-29T11:20:56.986Z,2298.00
2024-01-29T11:21:56.267Z,2313.00
2024-01-29T11:22:56.302Z,2377.00
2024-01-29T11:23:56.323Z,2399.00
2024-01-29T11:24:56.309Z,2410.00
2024-01-29T11:25:56.301Z,2434.00
2024-01-29T11:26:56.987Z,2446.00
2024-01-29T11:27:56.276Z,2454.00
2024-01-29T11:28:56.355Z,2468.00
2024-01-29T11:29:56.430Z,2489.00
2024-01-29T11:30:56.584Z,2503.00
2024-01-29T11:31:57.000Z,2531.00
2024-01-29T11:32:56.623Z,2552.00
2024-01-29T11:33:56.958Z,2564.00
2024-01-29T11:34:56.531Z,2592.00
2024-01-29T11:35:56.614Z,2604.00
2024-01-29T11:36:57.659Z,2642.00
2024-01-29T11:37:56.621Z,2638.00
2024-01-29T11:38:56.728Z,2646.00
2024-01-29T11:39:56.721Z,2657.00
2024-01-29T11:40:56.741Z,2689.00
2024-01-29T11:41:56.751Z,2707.00
2024-01-29T11:42:56.867Z,2710.00
2024-01-29T11:43:56.812Z,2724.00
2024-01-29T11:44:56.914Z,2745.00
2024-01-29T11:45:57.477Z,2770.00
2024-01-29T11:46:56.912Z,2796.00
2024-01-29T11:47:57.539Z,2800.00
2024-01-29T11:48:57.105Z,2820.00
2024-01-29T11:49:57.535Z,2835.00
2024-01-29T11:50:56.968Z,2864.00
2024-01-29T11:51:58.011Z,2886.00
2024-01-29T11:53:04.662Z,2903.00
2024-01-29T11:53:57.921Z,2910.00
2024-01-29T11:54:56.948Z,3023.00
2024-01-29T11:55:57.871Z,3198.00
2024-01-29T11:56:57.501Z,3236.00
2024-01-29T11:57:56.856Z,3221.00
2024-01-29T11:58:56.810Z,3201.00
2024-01-29T11:59:56.791Z,3023.00
2024-01-29T12:00:57.081Z,3021.00
2024-01-29T12:01:56.785Z,3022.00
2024-01-29T12:02:56.719Z,2918.00
2024-01-29T12:03:56.727Z,2959.00
2024-01-29T12:04:56.735Z,2968.00
2024-01-29T12:05:56.681Z,2957.00
2024-01-29T12:06:56.799Z,2953.00
2024-01-29T12:07:56.795Z,2941.00
2024-01-29T12:08:56.580Z,2933.00
2024-01-29T12:09:56.571Z,2923.00
2024-01-29T12:10:56.546Z,2920.00
2024-01-29T12:11:56.550Z,2911.00
2024-01-29T12:12:56.686Z,2906.00
2024-01-29T12:13:56.542Z,2906.00
2024-01-29T12:14:56.543Z,2902.00
2024-01-29T12:15:56.559Z,2897.00
2024-01-29T12:16:56.595Z,2897.00
2024-01-29T12:17:57.028Z,2885.00